createdAt,value
2019-02-11T00:00:36.209Z,986.49
2019-02-11T00:01:36.189Z,986.40
2019-02-11T00:02:36.166Z,986.48
2019-02-11T00:03:36.151Z,986.55
2019-02-11T00:04:36.121Z,986.47
2019-02-11T00:05:36.099Z,986.46
2019-02-11T00:06:36.075Z,986.48
2019-02-11T00:07:36.055Z,986.42
2019-02-11T00:08:36.031Z,986.58
2019-02-11T00:09:36.009Z,986.53
2019-02-11T00:10:35.990Z,986.48
2019-02-11T00:11:35.965Z,986.59
2019-02-11T00:12:35.938Z,986.66
2019-02-11T00:13:35.927Z,986.75
2019-02-11T00:14:35.899Z,986.71
2019-02-11T00:15:35.873Z,986.72
2019-02-11T00:16:35.867Z,986.78
2019-02-11T00:17:35.835Z,986.72
2019-02-11T00:18:35.812Z,986.73
2019-02-11T00:19:35.787Z,986.68
2019-02-11T00:20:35.761Z,986.71
2019-02-11T00:21:35.743Z,986.70
2019-02-11T00:22:35.728Z,986.69
2019-02-11T00:23:35.694Z,986.82
2019-02-11T00:24:35.671Z,986.73
2019-02-11T00:25:35.649Z,986.86
2019-02-11T00:26:35.626Z,986.85
2019-02-11T00:27:35.603Z,986.84
2019-02-11T00:28:35.582Z,986.88
2019-02-11T00:29:35.561Z,986.90
2019-02-11T00:30:35.539Z,986.92
2019-02-11T00:31:35.513Z,986.92
2019-02-11T00:32:35.492Z,986.97
2019-02-11T00:33:35.473Z,986.91
2019-02-11T00:34:35.445Z,986.90
2019-02-11T00:35:35.419Z,986.96
2019-02-11T00:36:35.457Z,987.00
2019-02-11T00:37:35.378Z,986.96
2019-02-11T00:38:35.357Z,987.07
2019-02-11T00:39:35.334Z,987.04
2019-02-11T00:40:35.315Z,987.10
2019-02-11T00:41:35.287Z,987.07
2019-02-11T00:42:35.266Z,987.12
2019-02-11T00:43:35.241Z,986.96
2019-02-11T00:44:35.217Z,987.03
2019-02-11T00:45:35.196Z,987.02
2019-02-11T00:46:35.176Z,987.08
2019-02-11T00:47:35.151Z,986.94
2019-02-11T00:48:35.133Z,987.04
2019-02-11T00:49:35.105Z,987.11
2019-02-11T00:50:35.094Z,987.05
2019-02-11T00:51:35.062Z,987.14
2019-02-11T00:52:35.038Z,987.10
2019-02-11T00:53:35.015Z,987.22
2019-02-11T00:54:34.991Z,987.13
2019-02-11T00:55:34.969Z,987.31
2019-02-11T00:56:34.943Z,987.15
2019-02-11T00:57:34.923Z,987.22
2019-02-11T00:58:34.903Z,987.25
2019-02-11T00:59:34.877Z,987.25
2019-02-11T01:00:34.856Z,987.19
2019-02-11T01:01:34.835Z,987.25
2019-02-11T01:02:34.807Z,987.35
2019-02-11T01:03:34.788Z,987.27
2019-02-11T01:04:34.764Z,987.35
2019-02-11T01:05:34.740Z,987.35
2019-02-11T01:06:34.717Z,987.33
2019-02-11T01:07:34.698Z,987.29
2019-02-11T01:08:34.668Z,987.35
2019-02-11T01:09:34.658Z,987.32
2019-02-11T01:10:34.624Z,987.37
2019-02-11T01:11:34.603Z,987.33
2019-02-11T01:12:34.582Z,987.32
2019-02-11T01:13:34.557Z,987.42
2019-02-11T01:14:34.534Z,987.37
2019-02-11T01:15:34.515Z,987.44
2019-02-11T01:16:34.492Z,987.49
2019-02-11T01:17:34.468Z,987.53
2019-02-11T01:18:34.441Z,987.63
2019-02-11T01:19:34.417Z,987.56
2019-02-11T01:20:34.398Z,987.68
2019-02-11T01:21:34.374Z,987.54
2019-02-11T01:22:34.352Z,987.63
2019-02-11T01:23:34.327Z,987.69
2019-02-11T01:24:34.306Z,987.66
2019-02-11T01:25:34.278Z,987.67
2019-02-11T01:26:34.259Z,987.68
2019-02-11T01:27:34.232Z,987.68
2019-02-11T01:28:34.212Z,987.72
2019-02-11T01:29:34.193Z,987.78
2019-02-11T01:30:34.169Z,987.73
2019-02-11T01:31:34.148Z,987.65
2019-02-11T01:32:34.119Z,987.69
2019-02-11T01:33:34.094Z,987.72
2019-02-11T01:34:34.074Z,987.81
2019-02-11T01:35:34.050Z,987.80
2019-02-11T01:36:34.028Z,987.78
2019-02-11T01:37:34.005Z,987.84
2019-02-11T01:38:33.983Z,987.78
2019-02-11T01:39:33.958Z,987.74
2019-02-11T01:40:33.934Z,987.74
2019-02-11T01:41:33.939Z,987.82
2019-02-11T01:42:33.889Z,987.87
2019-02-11T01:43:36.081Z,987.94
2019-02-11T01:44:33.842Z,987.94
2019-02-11T01:45:33.819Z,988.01
2019-02-11T01:46:33.797Z,987.97
2019-02-11T01:47:33.773Z,987.89
2019-02-11T01:48:33.750Z,987.99
2019-02-11T01:49:33.725Z,987.99
2019-02-11T01:50:33.710Z,988.01
2019-02-11T01:51:33.683Z,988.09
2019-02-11T01:52:33.658Z,988.02
2019-02-11T01:53:33.638Z,988.07
2019-02-11T01:54:33.614Z,988.16
2019-02-11T01:55:33.593Z,988.14
2019-02-11T01:56:33.570Z,988.17
2019-02-11T01:57:33.540Z,988.26
2019-02-11T01:58:33.520Z,988.25
2019-02-11T01:59:33.498Z,988.30
2019-02-11T02:00:33.475Z,988.40
2019-02-11T02:01:33.454Z,988.29
2019-02-11T02:02:33.430Z,988.33
2019-02-11T02:03:33.405Z,988.37
2019-02-11T02:04:33.381Z,988.38
2019-02-11T02:05:33.359Z,988.40
2019-02-11T02:06:33.333Z,988.45
2019-02-11T02:07:33.315Z,988.45
2019-02-11T02:08:33.289Z,988.47
2019-02-11T02:09:33.265Z,988.49
2019-02-11T02:10:33.239Z,988.52
2019-02-11T02:11:33.217Z,988.54
2019-02-11T02:12:33.222Z,988.49
2019-02-11T02:13:33.173Z,988.47
2019-02-11T02:14:33.155Z,988.50
2019-02-11T02:15:33.125Z,988.59
2019-02-11T02:16:33.099Z,988.55
2019-02-11T02:17:33.082Z,988.61
2019-02-11T02:18:33.058Z,988.59
2019-02-11T02:19:33.031Z,988.61
2019-02-11T02:20:33.010Z,988.70
2019-02-11T02:21:32.988Z,988.66
2019-02-11T02:22:32.966Z,988.67
2019-02-11T02:23:32.939Z,988.70
2019-02-11T02:24:32.918Z,988.67
2019-02-11T02:25:32.897Z,988.62
2019-02-11T02:26:32.871Z,988.64
2019-02-11T02:27:32.845Z,988.70
2019-02-11T02:28:32.825Z,988.70
2019-02-11T02:29:32.801Z,988.66
2019-02-11T02:30:32.777Z,988.72
2019-02-11T02:31:32.751Z,988.71
2019-02-11T02:32:32.731Z,988.71
2019-02-11T02:33:32.705Z,988.68
2019-02-11T02:34:32.690Z,988.73
2019-02-11T02:35:32.662Z,988.81
2019-02-11T02:36:32.638Z,988.75
2019-02-11T02:37:32.659Z,988.83
2019-02-11T02:38:32.590Z,988.80
2019-02-11T02:39:32.573Z,988.83
2019-02-11T02:40:32.546Z,988.87
2019-02-11T02:41:32.554Z,988.90
2019-02-11T02:42:32.497Z,988.91
2019-02-11T02:43:32.475Z,988.94
2019-02-11T02:44:32.450Z,988.99
2019-02-11T02:45:32.453Z,988.98
2019-02-11T02:46:32.403Z,989.00
2019-02-11T02:47:32.382Z,988.99
2019-02-11T02:48:32.362Z,989.04
2019-02-11T02:49:32.335Z,989.10
2019-02-11T02:50:32.316Z,989.15
2019-02-11T02:51:32.297Z,989.13
2019-02-11T02:52:32.267Z,989.18
2019-02-11T02:53:32.241Z,989.25
2019-02-11T02:54:32.221Z,989.24
2019-02-11T02:55:32.197Z,989.32
2019-02-11T02:56:32.169Z,989.34
2019-02-11T02:57:32.150Z,989.38
2019-02-11T02:58:32.121Z,989.39
2019-02-11T02:59:32.100Z,989.47
2019-02-11T03:00:32.077Z,989.41
2019-02-11T03:01:32.051Z,989.52
2019-02-11T03:02:32.032Z,989.56
2019-02-11T03:03:32.006Z,989.58
2019-02-11T03:04:31.986Z,989.60
2019-02-11T03:05:31.960Z,989.71
2019-02-11T03:06:31.935Z,989.71
2019-02-11T03:07:31.916Z,989.86
2019-02-11T03:08:31.893Z,989.84
2019-02-11T03:09:31.864Z,989.82
2019-02-11T03:10:31.845Z,989.97
2019-02-11T03:11:31.816Z,989.96
2019-02-11T03:12:31.795Z,989.95
2019-02-11T03:13:31.773Z,990.03
2019-02-11T03:14:31.749Z,990.04
2019-02-11T03:15:31.726Z,990.07
2019-02-11T03:16:31.700Z,990.18
2019-02-11T03:17:31.686Z,990.19
2019-02-11T03:18:31.654Z,990.26
2019-02-11T03:19:31.630Z,990.24
2019-02-11T03:20:31.609Z,990.33
2019-02-11T03:21:31.584Z,990.33
2019-02-11T03:22:31.562Z,990.41
2019-02-11T03:23:31.540Z,990.43
2019-02-11T03:24:31.513Z,990.44
2019-02-11T03:25:31.492Z,990.49
2019-02-11T03:26:31.468Z,990.48
2019-02-11T03:27:31.445Z,990.53
2019-02-11T03:28:31.420Z,990.59
2019-02-11T03:29:31.407Z,990.62
2019-02-11T03:30:31.373Z,990.71
2019-02-11T03:31:31.350Z,990.70
2019-02-11T03:32:31.325Z,990.75
2019-02-11T03:33:31.307Z,990.88
2019-02-11T03:34:31.281Z,990.87
2019-02-11T03:35:31.258Z,990.87
2019-02-11T03:36:31.233Z,990.89
2019-02-11T03:37:31.209Z,990.90
2019-02-11T03:38:31.186Z,990.96
2019-02-11T03:39:31.161Z,991.00
2019-02-11T03:40:31.139Z,991.00
2019-02-11T03:41:31.119Z,991.02
2019-02-11T03:42:31.094Z,991.06
2019-02-11T03:43:31.072Z,991.09
2019-02-11T03:44:31.046Z,991.10
2019-02-11T03:45:31.022Z,991.17
2019-02-11T03:46:30.997Z,991.15
2019-02-11T03:47:30.973Z,991.25
2019-02-11T03:48:30.950Z,991.28
2019-02-11T03:49:30.928Z,991.27
2019-02-11T03:50:30.904Z,991.29
2019-02-11T03:51:30.882Z,991.34
2019-02-11T03:52:30.856Z,991.41
2019-02-11T03:53:30.841Z,991.43
2019-02-11T03:54:30.814Z,991.45
2019-02-11T03:55:30.788Z,991.45
2019-02-11T03:56:30.763Z,991.58
2019-02-11T03:57:30.740Z,991.52
2019-02-11T03:58:30.717Z,991.55
2019-02-11T03:59:30.691Z,991.62
2019-02-11T04:00:30.673Z,991.52
2019-02-11T04:01:30.643Z,991.62
2019-02-11T04:02:30.627Z,991.79
2019-02-11T04:03:30.596Z,991.82
2019-02-11T04:04:30.573Z,991.87
2019-02-11T04:05:30.554Z,991.88
2019-02-11T04:06:30.528Z,991.82
2019-02-11T04:07:30.503Z,991.96
2019-02-11T04:08:30.478Z,991.95
2019-02-11T04:09:30.461Z,991.96
2019-02-11T04:10:30.443Z,991.98
2019-02-11T04:11:30.411Z,991.97
2019-02-11T04:12:30.383Z,992.02
2019-02-11T04:13:30.367Z,992.04
2019-02-11T04:14:30.341Z,992.09
2019-02-11T04:15:30.315Z,992.04
2019-02-11T04:16:30.291Z,992.06
2019-02-11T04:17:30.269Z,992.11
2019-02-11T04:18:30.243Z,992.15
2019-02-11T04:19:30.224Z,992.19
2019-02-11T04:20:30.202Z,992.27
2019-02-11T04:21:30.173Z,992.17
2019-02-11T04:22:30.149Z,992.28
2019-02-11T04:23:30.127Z,992.31
2019-02-11T04:24:30.104Z,992.29
2019-02-11T04:25:30.086Z,992.30
2019-02-11T04:26:30.058Z,992.32
2019-02-11T04:27:30.035Z,992.34
2019-02-11T04:28:30.061Z,992.43
2019-02-11T04:29:29.988Z,992.46
2019-02-11T04:30:29.963Z,992.46
2019-02-11T04:31:29.948Z,992.46
2019-02-11T04:32:29.915Z,992.58
2019-02-11T04:33:29.891Z,992.50
2019-02-11T04:34:29.869Z,992.56
2019-02-11T04:35:29.844Z,992.57
2019-02-11T04:36:29.820Z,992.64
2019-02-11T04:37:29.799Z,992.58
2019-02-11T04:38:29.772Z,992.62
2019-02-11T04:39:29.755Z,992.70
2019-02-11T04:40:29.732Z,992.77
2019-02-11T04:41:29.702Z,992.79
2019-02-11T04:42:29.680Z,992.73
2019-02-11T04:43:29.660Z,992.76
2019-02-11T04:44:34.074Z,992.84
2019-02-11T04:45:29.609Z,992.82
2019-02-11T04:46:29.959Z,992.86
2019-02-11T04:47:29.613Z,992.84
2019-02-11T04:48:29.539Z,992.98
2019-02-11T04:49:29.516Z,992.91
2019-02-11T04:50:29.491Z,992.99
2019-02-11T04:51:29.470Z,993.00
2019-02-11T04:52:29.447Z,993.04
2019-02-11T04:53:29.423Z,993.02
2019-02-11T04:54:29.511Z,993.12
2019-02-11T04:55:29.388Z,993.15
2019-02-11T04:56:29.356Z,993.19
2019-02-11T04:57:29.333Z,993.23
2019-02-11T04:58:29.307Z,993.30
2019-02-11T04:59:29.285Z,993.27
2019-02-11T05:00:29.260Z,993.29
2019-02-11T05:01:29.240Z,993.36
2019-02-11T05:02:29.215Z,993.28
2019-02-11T05:03:29.192Z,993.41
2019-02-11T05:04:29.166Z,993.45
2019-02-11T05:05:29.143Z,993.53
2019-02-11T05:06:29.122Z,993.47
2019-02-11T05:07:29.100Z,993.54
2019-02-11T05:08:29.079Z,993.60
2019-02-11T05:09:29.054Z,993.58
2019-02-11T05:10:29.024Z,993.59
2019-02-11T05:11:29.005Z,993.57
2019-02-11T05:12:28.981Z,993.60
2019-02-11T05:13:28.957Z,993.60
2019-02-11T05:14:28.933Z,993.72
2019-02-11T05:15:28.912Z,993.69
2019-02-11T05:16:28.884Z,993.71
2019-02-11T05:17:28.865Z,993.69
2019-02-11T05:18:28.869Z,993.76
2019-02-11T05:19:28.815Z,993.74
2019-02-11T05:20:28.796Z,993.76
2019-02-11T05:21:28.770Z,993.74
2019-02-11T05:22:28.749Z,993.77
2019-02-11T05:23:28.725Z,993.86
2019-02-11T05:24:28.703Z,993.85
2019-02-11T05:25:28.679Z,993.89
2019-02-11T05:26:28.652Z,993.83
2019-02-11T05:27:28.629Z,993.93
2019-02-11T05:28:28.607Z,993.94
2019-02-11T05:29:28.582Z,993.99
2019-02-11T05:30:28.571Z,993.99
2019-02-11T05:31:28.537Z,994.01
2019-02-11T05:32:28.516Z,994.02
2019-02-11T05:33:28.491Z,994.06
2019-02-11T05:34:28.470Z,994.07
2019-02-11T05:35:28.443Z,994.05
2019-02-11T05:36:28.419Z,994.16
2019-02-11T05:37:28.407Z,994.23
2019-02-11T05:38:28.380Z,994.26
2019-02-11T05:39:28.353Z,994.22
2019-02-11T05:40:28.329Z,994.32
2019-02-11T05:41:28.304Z,994.27
2019-02-11T05:42:28.282Z,994.30
2019-02-11T05:43:28.256Z,994.30
2019-02-11T05:44:28.235Z,994.36
2019-02-11T05:45:28.208Z,994.40
2019-02-11T05:46:28.191Z,994.37
2019-02-11T05:47:28.163Z,994.35
2019-02-11T05:48:28.140Z,994.42
2019-02-11T05:49:28.121Z,994.47
2019-02-11T05:50:28.100Z,994.47
2019-02-11T05:51:28.070Z,994.54
2019-02-11T05:52:28.050Z,994.53
2019-02-11T05:53:28.028Z,994.51
2019-02-11T05:54:28.005Z,994.60
2019-02-11T05:55:27.986Z,994.66
2019-02-11T05:56:27.956Z,994.62
2019-02-11T05:57:27.936Z,994.77
2019-02-11T05:58:27.910Z,994.77
2019-02-11T05:59:27.885Z,994.77
2019-02-11T06:00:27.863Z,994.86
2019-02-11T06:01:27.837Z,994.82
2019-02-11T06:02:27.825Z,994.81
2019-02-11T06:03:27.798Z,994.88
2019-02-11T06:04:27.771Z,994.92
2019-02-11T06:05:27.753Z,994.90
2019-02-11T06:06:27.729Z,994.94
2019-02-11T06:07:27.702Z,994.95
2019-02-11T06:08:27.678Z,994.98
2019-02-11T06:09:27.659Z,995.01
2019-02-11T06:10:27.632Z,995.01
2019-02-11T06:11:27.606Z,995.04
2019-02-11T06:12:27.589Z,995.06
2019-02-11T06:13:27.563Z,995.09
2019-02-11T06:14:27.536Z,995.10
2019-02-11T06:15:27.520Z,995.18
2019-02-11T06:16:27.499Z,995.19
2019-02-11T06:17:27.467Z,995.22
2019-02-11T06:18:27.445Z,995.13
2019-02-11T06:19:27.426Z,995.21
2019-02-11T06:20:27.400Z,995.31
2019-02-11T06:21:27.376Z,995.24
2019-02-11T06:22:27.355Z,995.33
2019-02-11T06:23:27.336Z,995.39
2019-02-11T06:24:27.303Z,995.39
2019-02-11T06:25:27.299Z,995.42
2019-02-11T06:26:27.261Z,995.46
2019-02-11T06:27:27.240Z,995.45
2019-02-11T06:28:27.212Z,995.54
2019-02-11T06:29:27.194Z,995.51
2019-02-11T06:30:27.169Z,995.58
2019-02-11T06:31:27.153Z,995.62
2019-02-11T06:32:27.125Z,995.59
2019-02-11T06:33:27.100Z,995.63
2019-02-11T06:34:27.077Z,995.68
2019-02-11T06:35:27.052Z,995.74
2019-02-11T06:36:27.028Z,995.78
2019-02-11T06:37:27.012Z,995.79
2019-02-11T06:38:26.986Z,995.82
2019-02-11T06:39:26.958Z,995.88
2019-02-11T06:40:26.938Z,995.85
2019-02-11T06:41:26.917Z,995.88
2019-02-11T06:42:26.893Z,995.93
2019-02-11T06:43:26.863Z,995.93
2019-02-11T06:44:26.842Z,996.00
2019-02-11T06:45:26.819Z,996.02
2019-02-11T06:46:26.804Z,995.98
2019-02-11T06:47:26.773Z,996.02
2019-02-11T06:48:26.786Z,996.07
2019-02-11T06:49:26.729Z,996.13
2019-02-11T06:50:26.707Z,996.19
2019-02-11T06:51:26.685Z,996.20
2019-02-11T06:52:26.657Z,996.10
2019-02-11T06:53:26.644Z,996.19
2019-02-11T06:54:26.611Z,996.21
2019-02-11T06:55:26.591Z,996.29
2019-02-11T06:56:26.565Z,996.25
2019-02-11T06:57:26.548Z,996.26
2019-02-11T06:58:26.525Z,996.31
2019-02-11T06:59:26.493Z,996.30
2019-02-11T07:00:26.483Z,996.39
2019-02-11T07:01:26.453Z,996.41
2019-02-11T07:02:26.430Z,996.38
2019-02-11T07:03:26.417Z,996.42
2019-02-11T07:04:26.389Z,996.44
2019-02-11T07:05:26.355Z,996.48
2019-02-11T07:06:26.342Z,996.50
2019-02-11T07:07:26.313Z,996.46
2019-02-11T07:08:26.291Z,996.58
2019-02-11T07:09:26.271Z,996.61
2019-02-11T07:10:26.245Z,996.65
2019-02-11T07:11:26.221Z,996.66
2019-02-11T07:12:26.199Z,996.64
2019-02-11T07:13:26.176Z,996.58
2019-02-11T07:14:26.153Z,996.61
2019-02-11T07:15:26.129Z,996.67
2019-02-11T07:16:26.107Z,996.65
2019-02-11T07:17:26.089Z,996.66
2019-02-11T07:18:26.059Z,996.62
2019-02-11T07:19:26.035Z,996.77
2019-02-11T07:20:26.015Z,996.82
2019-02-11T07:21:25.993Z,996.78
2019-02-11T07:22:25.968Z,996.82
2019-02-11T07:23:25.941Z,996.83
2019-02-11T07:24:25.926Z,996.84
2019-02-11T07:25:25.899Z,996.80
2019-02-11T07:26:25.911Z,996.85
2019-02-11T07:27:25.853Z,996.86
2019-02-11T07:28:25.833Z,996.89
2019-02-11T07:29:25.809Z,996.93
2019-02-11T07:30:25.785Z,996.90
2019-02-11T07:31:25.759Z,997.00
2019-02-11T07:32:25.737Z,997.02
2019-02-11T07:33:25.714Z,997.03
2019-02-11T07:34:25.693Z,997.12
2019-02-11T07:35:25.668Z,997.10
2019-02-11T07:36:25.647Z,997.17
2019-02-11T07:37:25.624Z,997.14
2019-02-11T07:38:25.600Z,997.15
2019-02-11T07:39:25.579Z,997.19
2019-02-11T07:40:25.553Z,997.27
2019-02-11T07:41:25.541Z,997.23
2019-02-11T07:42:25.512Z,997.28
2019-02-11T07:43:25.487Z,997.30
2019-02-11T07:44:25.460Z,997.32
2019-02-11T07:45:30.068Z,997.33
2019-02-11T07:46:25.418Z,997.33
2019-02-11T07:47:25.391Z,997.41
2019-02-11T07:48:25.369Z,997.43
2019-02-11T07:49:25.349Z,997.41
2019-02-11T07:50:25.326Z,997.43
2019-02-11T07:51:25.302Z,997.36
2019-02-11T07:52:26.803Z,997.45
2019-02-11T07:53:25.258Z,997.41
2019-02-11T07:54:25.234Z,997.56
2019-02-11T07:55:25.224Z,997.53
2019-02-11T07:56:25.188Z,997.58
2019-02-11T07:57:25.166Z,997.57
2019-02-11T07:58:25.147Z,997.58
2019-02-11T07:59:25.124Z,997.66
2019-02-11T08:00:25.104Z,997.71
2019-02-11T08:01:25.077Z,997.67
2019-02-11T08:02:25.056Z,997.75
2019-02-11T08:03:25.031Z,997.80
2019-02-11T08:04:25.009Z,997.77
2019-02-11T08:05:24.985Z,997.83
2019-02-11T08:06:24.961Z,997.81
2019-02-11T08:07:24.940Z,997.96
2019-02-11T08:08:24.912Z,997.87
2019-02-11T08:09:24.895Z,997.86
2019-02-11T08:10:24.875Z,997.83
2019-02-11T08:11:24.846Z,997.90
2019-02-11T08:12:24.822Z,997.88
2019-02-11T08:13:26.651Z,997.93
2019-02-11T08:14:24.780Z,997.91
2019-02-11T08:15:24.757Z,997.92
2019-02-11T08:16:24.734Z,997.97
2019-02-11T08:17:24.712Z,998.00
2019-02-11T08:18:24.690Z,998.09
2019-02-11T08:19:24.669Z,998.03
2019-02-11T08:20:24.640Z,998.09
2019-02-11T08:21:24.621Z,998.06
2019-02-11T08:22:24.599Z,998.18
2019-02-11T08:23:24.579Z,998.15
2019-02-11T08:24:24.558Z,998.16
2019-02-11T08:25:24.532Z,998.15
2019-02-11T08:26:24.509Z,998.19
2019-02-11T08:27:24.484Z,998.13
2019-02-11T08:28:24.464Z,998.13
2019-02-11T08:29:24.442Z,998.19
2019-02-11T08:30:24.418Z,998.18
2019-02-11T08:31:24.399Z,998.22
2019-02-11T08:32:24.376Z,998.24
2019-02-11T08:33:24.352Z,998.28
2019-02-11T08:34:24.330Z,998.29
2019-02-11T08:35:24.304Z,998.31
2019-02-11T08:36:24.284Z,998.30
2019-02-11T08:37:24.260Z,998.32
2019-02-11T08:38:24.238Z,998.46
2019-02-11T08:39:24.264Z,998.44
2019-02-11T08:40:24.191Z,998.45
2019-02-11T08:41:24.172Z,998.47
2019-02-11T08:42:24.154Z,998.59
2019-02-11T08:43:24.124Z,998.52
2019-02-11T08:44:24.105Z,998.59
2019-02-11T08:45:24.079Z,998.65
2019-02-11T08:46:24.053Z,998.63
2019-02-11T08:47:24.034Z,998.63
2019-02-11T08:48:24.008Z,998.70
2019-02-11T08:49:23.990Z,998.72
2019-02-11T08:50:23.966Z,998.70
2019-02-11T08:51:23.941Z,998.71
2019-02-11T08:52:24.062Z,998.81
2019-02-11T08:53:23.898Z,998.78
2019-02-11T08:54:23.877Z,998.82
2019-02-11T08:55:23.856Z,998.85
2019-02-11T08:56:23.834Z,998.88
2019-02-11T08:57:23.812Z,998.95
2019-02-11T08:58:23.786Z,998.95
2019-02-11T08:59:23.762Z,998.97
2019-02-11T09:00:23.736Z,999.16
2019-02-11T09:01:23.716Z,999.05
2019-02-11T09:02:23.692Z,999.10
2019-02-11T09:03:23.672Z,999.10
2019-02-11T09:04:23.655Z,999.19
2019-02-11T09:05:23.627Z,999.26
2019-02-11T09:06:23.610Z,999.24
2019-02-11T09:07:23.582Z,999.27
2019-02-11T09:08:23.562Z,999.18
2019-02-11T09:09:23.538Z,999.32
2019-02-11T09:10:23.511Z,999.32
2019-02-11T09:11:23.493Z,999.34
2019-02-11T09:12:23.472Z,999.34
2019-02-11T09:13:23.446Z,999.39
2019-02-11T09:14:23.432Z,999.37
2019-02-11T09:15:23.412Z,999.45
2019-02-11T09:16:23.381Z,999.42
2019-02-11T09:17:23.360Z,999.38
2019-02-11T09:18:23.338Z,999.43
2019-02-11T09:19:23.313Z,999.44
2019-02-11T09:20:23.296Z,999.44
2019-02-11T09:21:23.273Z,999.46
2019-02-11T09:22:23.247Z,999.41
2019-02-11T09:23:23.222Z,999.51
2019-02-11T09:24:23.204Z,999.49
2019-02-11T09:25:23.179Z,999.51
2019-02-11T09:26:23.159Z,999.48
2019-02-11T09:27:23.133Z,999.51
2019-02-11T09:28:23.109Z,999.50
2019-02-11T09:29:23.089Z,999.45
2019-02-11T09:30:23.067Z,999.55
2019-02-11T09:31:23.043Z,999.62
2019-02-11T09:32:23.023Z,999.67
2019-02-11T09:33:22.994Z,999.79
2019-02-11T09:34:22.979Z,999.70
2019-02-11T09:35:22.955Z,999.78
2019-02-11T09:36:22.933Z,999.84
2019-02-11T09:37:22.916Z,999.76
2019-02-11T09:38:22.890Z,999.84
2019-02-11T09:39:22.862Z,999.79
2019-02-11T09:40:22.840Z,999.78
2019-02-11T09:41:22.819Z,999.81
2019-02-11T09:42:22.803Z,999.88
2019-02-11T09:43:22.774Z,999.91
2019-02-11T09:44:29.461Z,999.97
2019-02-11T09:45:22.731Z,999.95
2019-02-11T09:46:22.709Z,999.96
2019-02-11T09:47:22.693Z,1000.02
2019-02-11T09:48:22.661Z,999.94
2019-02-11T09:49:22.641Z,1000.16
2019-02-11T09:50:22.621Z,1000.11
2019-02-11T09:51:22.596Z,1000.07
2019-02-11T09:52:22.573Z,1000.08
2019-02-11T09:53:22.551Z,1000.16
2019-02-11T09:54:22.537Z,1000.16
2019-02-11T09:55:22.515Z,1000.14
2019-02-11T09:56:22.487Z,1000.15
2019-02-11T09:57:22.464Z,1000.19
2019-02-11T09:58:22.437Z,1000.23
2019-02-11T09:59:22.415Z,1000.25
2019-02-11T10:00:22.393Z,1000.25
2019-02-11T10:01:22.373Z,1000.40
2019-02-11T10:02:22.353Z,1000.25
2019-02-11T10:03:22.323Z,1000.33
2019-02-11T10:04:23.636Z,1000.35
2019-02-11T10:05:22.283Z,1000.32
2019-02-11T10:06:22.261Z,1000.37
2019-02-11T10:07:22.238Z,1000.40
2019-02-11T10:08:22.217Z,1000.37
2019-02-11T10:09:22.193Z,1000.42
2019-02-11T10:10:22.170Z,1000.45
2019-02-11T10:11:22.152Z,1000.46
2019-02-11T10:12:22.124Z,1000.47
2019-02-11T10:13:22.105Z,1000.47
2019-02-11T10:14:22.081Z,1000.50
2019-02-11T10:15:22.055Z,1000.47
2019-02-11T10:16:22.350Z,1000.53
2019-02-11T10:17:29.546Z,1000.62
2019-02-11T10:18:21.995Z,1000.68
2019-02-11T10:19:21.965Z,1000.61
2019-02-11T10:20:21.947Z,1000.63
2019-02-11T10:21:21.922Z,1000.68
2019-02-11T10:22:21.906Z,1000.73
2019-02-11T10:23:21.882Z,1000.72
2019-02-11T10:24:21.856Z,1000.70
2019-02-11T10:25:21.833Z,1000.78
2019-02-11T10:26:21.810Z,1000.77
2019-02-11T10:27:21.791Z,1000.75
2019-02-11T10:28:21.772Z,1000.78
2019-02-11T10:29:21.746Z,1000.85
2019-02-11T10:30:21.723Z,1000.88
2019-02-11T10:31:21.699Z,1000.86
2019-02-11T10:32:21.676Z,1000.85
2019-02-11T10:33:21.656Z,1000.86
2019-02-11T10:34:21.630Z,1000.84
2019-02-11T10:35:21.606Z,1000.96
2019-02-11T10:36:21.588Z,1000.94
2019-02-11T10:37:21.563Z,1000.89
2019-02-11T10:38:21.546Z,1000.90
2019-02-11T10:39:21.522Z,1001.05
2019-02-11T10:40:21.498Z,1000.88
2019-02-11T10:41:21.475Z,1000.95
2019-02-11T10:42:21.454Z,1001.07
2019-02-11T10:43:21.430Z,1001.03
2019-02-11T10:44:21.415Z,1001.08
2019-02-11T10:45:21.386Z,1001.07
2019-02-11T10:46:21.392Z,1001.10
2019-02-11T10:47:21.344Z,1001.17
2019-02-11T10:48:21.320Z,1001.10
2019-02-11T10:49:21.296Z,1001.14
2019-02-11T10:50:21.280Z,1001.18
2019-02-11T10:51:21.253Z,1001.20
2019-02-11T10:52:21.230Z,1001.20
2019-02-11T10:53:21.208Z,1001.23
2019-02-11T10:54:21.188Z,1001.16
2019-02-11T10:55:21.162Z,1001.23
2019-02-11T10:56:21.868Z,1001.22
2019-02-11T10:57:21.133Z,1001.31
2019-02-11T10:58:21.100Z,1001.20
2019-02-11T10:59:21.079Z,1001.20
2019-02-11T11:00:21.055Z,1001.30
2019-02-11T11:01:21.086Z,1001.26
2019-02-11T11:02:21.012Z,1001.25
2019-02-11T11:03:20.990Z,1001.32
2019-02-11T11:04:20.969Z,1001.37
2019-02-11T11:05:20.947Z,1001.38
2019-02-11T11:06:20.925Z,1001.34
2019-02-11T11:07:20.900Z,1001.50
2019-02-11T11:08:20.886Z,1001.47
2019-02-11T11:09:20.856Z,1001.45
2019-02-11T11:10:20.837Z,1001.45
2019-02-11T11:11:20.813Z,1001.47
2019-02-11T11:12:20.801Z,1001.49
2019-02-11T11:13:20.770Z,1001.52
2019-02-11T11:14:20.748Z,1001.46
2019-02-11T11:15:20.730Z,1001.59
2019-02-11T11:16:20.712Z,1001.54
2019-02-11T11:17:20.682Z,1001.58
2019-02-11T11:18:20.663Z,1001.59
2019-02-11T11:19:20.637Z,1001.58
2019-02-11T11:20:20.618Z,1001.62
2019-02-11T11:21:20.595Z,1001.68
2019-02-11T11:22:20.577Z,1001.76
2019-02-11T11:23:20.555Z,1001.65
2019-02-11T11:24:20.530Z,1001.74
2019-02-11T11:25:20.522Z,1001.65
2019-02-11T11:26:20.483Z,1001.77
2019-02-11T11:27:20.466Z,1001.82
2019-02-11T11:28:20.447Z,1001.83
2019-02-11T11:29:20.418Z,1001.80
2019-02-11T11:30:20.404Z,1001.84
2019-02-11T11:31:20.382Z,1001.88
2019-02-11T11:32:20.362Z,1001.92
2019-02-11T11:33:20.333Z,1001.93
2019-02-11T11:34:20.314Z,1001.77
2019-02-11T11:35:20.293Z,1001.95
2019-02-11T11:36:20.275Z,1001.89
2019-02-11T11:37:20.251Z,1001.89
2019-02-11T11:38:20.223Z,1001.86
2019-02-11T11:39:20.204Z,1001.91
2019-02-11T11:40:20.181Z,1001.94
2019-02-11T11:41:20.162Z,1001.79
2019-02-11T11:42:20.137Z,1001.91
2019-02-11T11:43:20.119Z,1001.96
2019-02-11T11:44:20.095Z,1001.92
2019-02-11T11:45:20.079Z,1001.97
2019-02-11T11:46:20.051Z,1001.91
2019-02-11T11:47:20.031Z,1001.97
2019-02-11T11:48:20.009Z,1001.93
2019-02-11T11:49:19.991Z,1001.90
2019-02-11T11:50:19.966Z,1001.93
2019-02-11T11:51:19.944Z,1001.94
2019-02-11T11:52:19.923Z,1001.96
2019-02-11T11:53:19.901Z,1002.00
2019-02-11T11:54:19.881Z,1001.98
2019-02-11T11:55:19.858Z,1002.07
2019-02-11T11:56:19.838Z,1001.96
2019-02-11T11:57:19.818Z,1002.03
2019-02-11T11:58:19.815Z,1002.09
2019-02-11T11:59:19.775Z,1001.98
2019-02-11T12:00:19.870Z,1002.09
2019-02-11T12:01:20.168Z,1002.05
2019-02-11T12:02:19.751Z,1002.10
2019-02-11T12:03:19.686Z,1002.13
2019-02-11T12:04:19.666Z,1002.11
2019-02-11T12:05:19.662Z,1002.15
2019-02-11T12:06:19.634Z,1002.10
2019-02-11T12:07:19.610Z,1002.17
2019-02-11T12:08:19.577Z,1002.19
2019-02-11T12:09:19.578Z,1002.14
2019-02-11T12:10:19.535Z,1002.30
2019-02-11T12:11:19.527Z,1002.24
2019-02-11T12:12:19.493Z,1002.21
2019-02-11T12:13:23.111Z,1002.26
2019-02-11T12:14:19.452Z,1002.32
2019-02-11T12:15:19.426Z,1002.30
2019-02-11T12:16:19.407Z,1002.35
2019-02-11T12:17:19.384Z,1002.37
2019-02-11T12:18:19.360Z,1002.39
2019-02-11T12:19:19.337Z,1002.47
2019-02-11T12:20:19.345Z,1002.49
2019-02-11T12:21:19.297Z,1002.48
2019-02-11T12:22:19.277Z,1002.54
2019-02-11T12:23:19.254Z,1002.41